sensor_id;sensor_type;location;lat;lon;timestamp;temperature;humidity
14585;DHT22;7379;51.506;11.876;2023-11-21T00:02:17;9.70;82.50
14585;DHT22;7379;51.506;11.876;2023-11-21T00:04:45;9.70;82.50
14585;DHT22;7379;51.506;11.876;2023-11-21T00:07:13;9.70;82.50
14585;DHT22;7379;51.506;11.876;2023-11-21T00:09:40;9.70;82.50
14585;DHT22;7379;51.506;11.876;2023-11-21T00:12:07;9.70;82.50
14585;DHT22;7379;51.506;11.876;2023-11-21T00:14:35;9.70;82.50
14585;DHT22;7379;51.506;11.876;2023-11-21T00:17:02;9.70;82.50
14585;DHT22;7379;51.506;11.876;2023-11-21T00:19:29;9.70;82.50
14585;DHT22;7379;51.506;11.876;2023-11-21T00:21:57;9.70;82.50
14585;DHT22;7379;51.506;11.876;2023-11-21T00:24:24;9.70;82.50
14585;DHT22;7379;51.506;11.876;2023-11-21T00:26:51;9.70;82.50
14585;DHT22;7379;51.506;11.876;2023-11-21T00:29:18;9.70;82.50
14585;DHT22;7379;51.506;11.876;2023-11-21T00:31:45;9.70;82.50
14585;DHT22;7379;51.506;11.876;2023-11-21T00:34:12;9.70;82.50
14585;DHT22;7379;51.506;11.876;2023-11-21T00:36:40;9.60;82.40
14585;DHT22;7379;51.506;11.876;2023-11-21T00:39:08;9.70;83.30
14585;DHT22;7379;51.506;11.876;2023-11-21T00:41:35;9.60;82.40
14585;DHT22;7379;51.506;11.876;2023-11-21T00:44:03;9.60;82.40
14585;DHT22;7379;51.506;11.876;2023-11-21T00:46:30;9.60;82.40
14585;DHT22;7379;51.506;11.876;2023-11-21T00:48:56;9.60;82.40
14585;DHT22;7379;51.506;11.876;2023-11-21T00:51:24;9.60;82.40
14585;DHT22;7379;51.506;11.876;2023-11-21T00:53:50;9.60;82.40
14585;DHT22;7379;51.506;11.876;2023-11-21T00:56:19;9.60;82.40
14585;DHT22;7379;51.506;11.876;2023-11-21T00:58:45;9.60;82.40
14585;DHT22;7379;51.506;11.876;2023-11-21T01:01:15;9.60;82.40
14585;DHT22;7379;51.506;11.876;2023-11-21T01:03:42;9.60;82.40
14585;DHT22;7379;51.506;11.876;2023-11-21T01:06:09;9.60;82.40
14585;DHT22;7379;51.506;11.876;2023-11-21T01:08:36;9.60;82.40
14585;DHT22;7379;51.506;11.876;2023-11-21T01:11:02;9.60;82.40
14585;DHT22;7379;51.506;11.876;2023-11-21T01:13:31;9.50;82.30
14585;DHT22;7379;51.506;11.876;2023-11-21T01:15:58;9.50;82.30
14585;DHT22;7379;51.506;11.876;2023-11-21T01:18:25;9.50;82.30
14585;DHT22;7379;51.506;11.876;2023-11-21T01:20:52;9.50;82.30
14585;DHT22;7379;51.506;11.876;2023-11-21T01:23:19;9.50;82.30
14585;DHT22;7379;51.506;11.876;2023-11-21T01:25:46;9.50;82.30
14585;DHT22;7379;51.506;11.876;2023-11-21T01:28:13;9.50;82.30
14585;DHT22;7379;51.506;11.876;2023-11-21T01:30:41;9.50;82.30
14585;DHT22;7379;51.506;11.876;2023-11-21T01:33:08;9.50;82.60
14585;DHT22;7379;51.506;11.876;2023-11-21T01:35:35;9.50;82.30
14585;DHT22;7379;51.506;11.876;2023-11-21T01:38:02;9.50;83.00
14585;DHT22;7379;51.506;11.876;2023-11-21T01:40:29;9.50;82.30
14585;DHT22;7379;51.506;11.876;2023-11-21T01:42:56;9.50;82.30
14585;DHT22;7379;51.506;11.876;2023-11-21T01:45:24;9.40;82.20
14585;DHT22;7379;51.506;11.876;2023-11-21T01:47:53;9.40;82.20
14585;DHT22;7379;51.506;11.876;2023-11-21T01:50:19;9.40;82.20
14585;DHT22;7379;51.506;11.876;2023-11-21T01:52:48;9.40;82.20
14585;DHT22;7379;51.506;11.876;2023-11-21T01:55:17;9.40;82.30
14585;DHT22;7379;51.506;11.876;2023-11-21T01:57:45;9.40;82.30
14585;DHT22;7379;51.506;11.876;2023-11-21T02:00:13;9.40;82.30
14585;DHT22;7379;51.506;11.876;2023-11-21T02:02:42;9.40;82.30
14585;DHT22;7379;51.506;11.876;2023-11-21T02:05:11;9.40;82.30
14585;DHT22;7379;51.506;11.876;2023-11-21T02:07:39;9.40;82.30
14585;DHT22;7379;51.506;11.876;2023-11-21T02:10:07;9.40;82.30
14585;DHT22;7379;51.506;11.876;2023-11-21T02:12:34;9.40;82.30
14585;DHT22;7379;51.506;11.876;2023-11-21T02:15:02;9.40;82.30
14585;DHT22;7379;51.506;11.876;2023-11-21T02:17:30;9.40;82.30
14585;DHT22;7379;51.506;11.876;2023-11-21T02:19:58;9.40;82.30
14585;DHT22;7379;51.506;11.876;2023-11-21T02:22:27;9.40;82.20
14585;DHT22;7379;51.506;11.876;2023-11-21T02:24:57;9.40;82.30
14585;DHT22;7379;51.506;11.876;2023-11-21T02:27:24;9.40;82.30
14585;DHT22;7379;51.506;11.876;2023-11-21T02:29:52;9.40;82.30
14585;DHT22;7379;51.506;11.876;2023-11-21T02:32:19;9.30;82.20
14585;DHT22;7379;51.506;11.876;2023-11-21T02:34:48;9.30;82.20
14585;DHT22;7379;51.506;11.876;2023-11-21T02:37:15;9.30;82.20
14585;DHT22;7379;51.506;11.876;2023-11-21T02:39:42;9.30;82.20
14585;DHT22;7379;51.506;11.876;2023-11-21T02:42:10;9.30;82.20
14585;DHT22;7379;51.506;11.876;2023-11-21T02:44:37;9.30;82.20
14585;DHT22;7379;51.506;11.876;2023-11-21T02:47:04;9.30;82.30
14585;DHT22;7379;51.506;11.876;2023-11-21T02:49:32;9.30;82.20
14585;DHT22;7379;51.506;11.876;2023-11-21T02:52:00;9.30;82.20
14585;DHT22;7379;51.506;11.876;2023-11-21T02:54:27;9.30;82.20
14585;DHT22;7379;51.506;11.876;2023-11-21T02:56:54;9.30;82.20
14585;DHT22;7379;51.506;11.876;2023-11-21T02:59:22;9.30;83.00
14585;DHT22;7379;51.506;11.876;2023-11-21T03:01:49;9.30;82.20
14585;DHT22;7379;51.506;11.876;2023-11-21T03:04:16;9.30;82.30
14585;DHT22;7379;51.506;11.876;2023-11-21T03:06:43;9.30;82.30
14585;DHT22;7379;51.506;11.876;2023-11-21T03:09:11;9.30;82.30
14585;DHT22;7379;51.506;11.876;2023-11-21T03:11:38;9.30;82.30
14585;DHT22;7379;51.506;11.876;2023-11-21T03:14:05;9.30;82.30
14585;DHT22;7379;51.506;11.876;2023-11-21T03:16:33;9.30;82.30
14585;DHT22;7379;51.506;11.876;2023-11-21T03:19:00;9.30;82.30
14585;DHT22;7379;51.506;11.876;2023-11-21T03:21:27;9.30;82.40
14585;DHT22;7379;51.506;11.876;2023-11-21T03:23:54;9.30;82.30
14585;DHT22;7379;51.506;11.876;2023-11-21T03:26:21;9.30;82.30
14585;DHT22;7379;51.506;11.876;2023-11-21T03:28:48;9.20;82.20
14585;DHT22;7379;51.506;11.876;2023-11-21T03:31:15;9.20;82.20
14585;DHT22;7379;51.506;11.876;2023-11-21T03:33:45;9.20;82.30
14585;DHT22;7379;51.506;11.876;2023-11-21T03:36:13;9.20;82.30
14585;DHT22;7379;51.506;11.876;2023-11-21T03:38:40;9.20;82.30
14585;DHT22;7379;51.506;11.876;2023-11-21T03:41:07;9.30;82.40
14585;DHT22;7379;51.506;11.876;2023-11-21T03:43:35;9.30;82.40
14585;DHT22;7379;51.506;11.876;2023-11-21T03:46:02;9.20;82.30
14585;DHT22;7379;51.506;11.876;2023-11-21T03:48:29;9.30;82.40
14585;DHT22;7379;51.506;11.876;2023-11-21T03:50:57;9.20;83.10
14585;DHT22;7379;51.506;11.876;2023-11-21T03:53:24;9.20;82.40
14585;DHT22;7379;51.506;11.876;2023-11-21T03:55:51;9.20;82.40
14585;DHT22;7379;51.506;11.876;2023-11-21T03:58:18;9.20;82.40
14585;DHT22;7379;51.506;11.876;2023-11-21T04:00:47;9.20;82.30
14585;DHT22;7379;51.506;11.876;2023-11-21T04:03:14;9.20;82.30
14585;DHT22;7379;51.506;11.876;2023-11-21T04:05:41;9.20;82.40
14585;DHT22;7379;51.506;11.876;2023-11-21T04:08:09;9.20;82.40
14585;DHT22;7379;51.506;11.876;2023-11-21T04:10:36;9.20;82.40
14585;DHT22;7379;51.506;11.876;2023-11-21T04:13:05;9.20;82.40
14585;DHT22;7379;51.506;11.876;2023-11-21T04:15:32;9.20;82.40
14585;DHT22;7379;51.506;11.876;2023-11-21T04:17:59;9.20;82.40
14585;DHT22;7379;51.506;11.876;2023-11-21T04:20:26;9.20;82.40
14585;DHT22;7379;51.506;11.876;2023-11-21T04:22:53;9.20;82.40
14585;DHT22;7379;51.506;11.876;2023-11-21T04:25:21;9.20;82.40
14585;DHT22;7379;51.506;11.876;2023-11-21T04:27:49;9.20;82.40
14585;DHT22;7379;51.506;11.876;2023-11-21T04:30:16;9.20;82.40
14585;DHT22;7379;51.506;11.876;2023-11-21T04:32:42;9.20;82.40
14585;DHT22;7379;51.506;11.876;2023-11-21T04:35:10;9.20;82.40
14585;DHT22;7379;51.506;11.876;2023-11-21T04:37:36;9.20;82.40
14585;DHT22;7379;51.506;11.876;2023-11-21T04:40:04;9.20;82.40
14585;DHT22;7379;51.506;11.876;2023-11-21T04:42:35;9.20;82.40
14585;DHT22;7379;51.506;11.876;2023-11-21T04:45:03;9.20;83.10
14585;DHT22;7379;51.506;11.876;2023-11-21T04:47:33;9.20;82.40
14585;DHT22;7379;51.506;11.876;2023-11-21T04:50:00;9.20;82.40
14585;DHT22;7379;51.506;11.876;2023-11-21T04:52:27;9.20;82.40
14585;DHT22;7379;51.506;11.876;2023-11-21T04:54:54;9.20;82.50
14585;DHT22;7379;51.506;11.876;2023-11-21T04:57:23;9.20;82.50
14585;DHT22;7379;51.506;11.876;2023-11-21T04:59:51;9.20;82.50
14585;DHT22;7379;51.506;11.876;2023-11-21T05:02:18;9.20;82.50
14585;DHT22;7379;51.506;11.876;2023-11-21T05:04:45;9.20;82.40
14585;DHT22;7379;51.506;11.876;2023-11-21T05:07:12;9.20;82.40
14585;DHT22;7379;51.506;11.876;2023-11-21T05:09:41;9.20;82.50
14585;DHT22;7379;51.506;11.876;2023-11-21T05:12:09;9.20;82.50
14585;DHT22;7379;51.506;11.876;2023-11-21T05:14:36;9.20;82.40
14585;DHT22;7379;51.506;11.876;2023-11-21T05:17:04;9.20;82.40
14585;DHT22;7379;51.506;11.876;2023-11-21T05:19:33;9.20;82.50
14585;DHT22;7379;51.506;11.876;2023-11-21T05:22:00;9.20;82.40
14585;DHT22;7379;51.506;11.876;2023-11-21T05:24:27;9.20;82.40
14585;DHT22;7379;51.506;11.876;2023-11-21T05:26:54;9.20;82.40
14585;DHT22;7379;51.506;11.876;2023-11-21T05:29:21;9.20;82.40
14585;DHT22;7379;51.506;11.876;2023-11-21T05:31:48;9.20;82.50
14585;DHT22;7379;51.506;11.876;2023-11-21T05:34:16;9.10;82.40
14585;DHT22;7379;51.506;11.876;2023-11-21T05:36:43;9.10;83.10
14585;DHT22;7379;51.506;11.876;2023-11-21T05:39:11;9.20;82.50
14585;DHT22;7379;51.506;11.876;2023-11-21T05:41:38;9.10;82.40
14585;DHT22;7379;51.506;11.876;2023-11-21T05:44:05;9.20;82.50
14585;DHT22;7379;51.506;11.876;2023-11-21T05:46:32;9.20;82.50
14585;DHT22;7379;51.506;11.876;2023-11-21T05:48:58;9.10;82.40
14585;DHT22;7379;51.506;11.876;2023-11-21T05:51:27;9.10;82.40
14585;DHT22;7379;51.506;11.876;2023-11-21T05:53:54;9.10;82.40
14585;DHT22;7379;51.506;11.876;2023-11-21T05:56:19;9.10;82.50
14585;DHT22;7379;51.506;11.876;2023-11-21T05:58:46;9.10;82.50
14585;DHT22;7379;51.506;11.876;2023-11-21T06:01:14;9.10;82.50
14585;DHT22;7379;51.506;11.876;2023-11-21T06:03:40;9.10;82.50
14585;DHT22;7379;51.506;11.876;2023-11-21T06:06:08;9.10;82.50
14585;DHT22;7379;51.506;11.876;2023-11-21T06:08:37;9.10;82.50
14585;DHT22;7379;51.506;11.876;2023-11-21T06:11:04;9.10;82.50
14585;DHT22;7379;51.506;11.876;2023-11-21T06:13:30;9.10;82.50
14585;DHT22;7379;51.506;11.876;2023-11-21T06:15:57;9.10;82.50
14585;DHT22;7379;51.506;11.876;2023-11-21T06:18:24;9.10;82.50
14585;DHT22;7379;51.506;11.876;2023-11-21T06:20:51;9.10;82.50
14585;DHT22;7379;51.506;11.876;2023-11-21T06:23:18;9.10;82.50
14585;DHT22;7379;51.506;11.876;2023-11-21T06:25:47;9.10;82.50
14585;DHT22;7379;51.506;11.876;2023-11-21T06:28:14;9.10;82.60
14585;DHT22;7379;51.506;11.876;2023-11-21T06:30:43;9.10;82.60
14585;DHT22;7379;51.506;11.876;2023-11-21T06:33:10;9.10;82.60
14585;DHT22;7379;51.506;11.876;2023-11-21T06:35:37;9.10;82.60
14585;DHT22;7379;51.506;11.876;2023-11-21T06:38:05;9.10;82.60
14585;DHT22;7379;51.506;11.876;2023-11-21T06:40:32;9.10;82.60
14585;DHT22;7379;51.506;11.876;2023-11-21T06:43:01;9.10;82.60
14585;DHT22;7379;51.506;11.876;2023-11-21T06:45:28;9.10;82.60
14585;DHT22;7379;51.506;11.876;2023-11-21T06:47:55;9.10;82.60
14585;DHT22;7379;51.506;11.876;2023-11-21T06:50:22;9.10;82.70
14585;DHT22;7379;51.506;11.876;2023-11-21T06:52:48;9.10;83.40
14585;DHT22;7379;51.506;11.876;2023-11-21T06:55:16;9.10;82.70
14585;DHT22;7379;51.506;11.876;2023-11-21T06:57:42;9.10;82.70
14585;DHT22;7379;51.506;11.876;2023-11-21T07:00:12;9.10;82.80
14585;DHT22;7379;51.506;11.876;2023-11-21T07:02:40;9.10;82.80
14585;DHT22;7379;51.506;11.876;2023-11-21T07:05:07;9.10;82.90
14585;DHT22;7379;51.506;11.876;2023-11-21T07:07:34;9.10;82.90
14585;DHT22;7379;51.506;11.876;2023-11-21T07:10:03;9.10;82.90
14585;DHT22;7379;51.506;11.876;2023-11-21T07:12:31;9.10;82.90
14585;DHT22;7379;51.506;11.876;2023-11-21T07:14:58;9.10;82.90
14585;DHT22;7379;51.506;11.876;2023-11-21T07:17:26;9.10;83.00
14585;DHT22;7379;51.506;11.876;2023-11-21T07:19:53;9.10;83.00
14585;DHT22;7379;51.506;11.876;2023-11-21T07:22:20;9.10;83.00
14585;DHT22;7379;51.506;11.876;2023-11-21T07:24:48;9.10;83.00
14585;DHT22;7379;51.506;11.876;2023-11-21T07:27:16;9.10;83.00
14585;DHT22;7379;51.506;11.876;2023-11-21T07:29:43;9.10;83.00
14585;DHT22;7379;51.506;11.876;2023-11-21T07:32:10;9.10;83.10
14585;DHT22;7379;51.506;11.876;2023-11-21T07:34:40;9.10;83.10
14585;DHT22;7379;51.506;11.876;2023-11-21T07:37:06;9.10;83.20
14585;DHT22;7379;51.506;11.876;2023-11-21T07:39:34;9.10;83.20
14585;DHT22;7379;51.506;11.876;2023-11-21T07:42:01;9.10;83.20
14585;DHT22;7379;51.506;11.876;2023-11-21T07:44:28;9.10;83.20
14585;DHT22;7379;51.506;11.876;2023-11-21T07:46:54;9.10;83.30
14585;DHT22;7379;51.506;11.876;2023-11-21T07:49:23;9.10;83.30
14585;DHT22;7379;51.506;11.876;2023-11-21T07:51:51;9.10;83.30
14585;DHT22;7379;51.506;11.876;2023-11-21T07:54:18;9.10;83.30
14585;DHT22;7379;51.506;11.876;2023-11-21T07:56:45;9.10;83.40
14585;DHT22;7379;51.506;11.876;2023-11-21T07:59:12;9.10;83.40
14585;DHT22;7379;51.506;11.876;2023-11-21T08:01:39;9.10;83.40
14585;DHT22;7379;51.506;11.876;2023-11-21T08:04:08;9.10;83.40
14585;DHT22;7379;51.506;11.876;2023-11-21T08:06:35;9.10;83.40
14585;DHT22;7379;51.506;11.876;2023-11-21T08:09:03;9.10;83.40
14585;DHT22;7379;51.506;11.876;2023-11-21T08:11:30;9.10;83.40
14585;DHT22;7379;51.506;11.876;2023-11-21T08:13:58;9.10;83.40
14585;DHT22;7379;51.506;11.876;2023-11-21T08:16:25;9.10;83.40
14585;DHT22;7379;51.506;11.876;2023-11-21T08:18:53;9.10;83.50
14585;DHT22;7379;51.506;11.876;2023-11-21T08:21:20;9.10;83.50
14585;DHT22;7379;51.506;11.876;2023-11-21T08:23:49;9.10;84.20
14585;DHT22;7379;51.506;11.876;2023-11-21T08:26:20;9.10;83.50
14585;DHT22;7379;51.506;11.876;2023-11-21T08:28:48;9.10;83.50
14585;DHT22;7379;51.506;11.876;2023-11-21T08:31:15;9.10;83.50
14585;DHT22;7379;51.506;11.876;2023-11-21T08:33:41;9.10;83.50
14585;DHT22;7379;51.506;11.876;2023-11-21T08:36:09;9.10;83.50
14585;DHT22;7379;51.506;11.876;2023-11-21T08:38:37;9.10;83.50
14585;DHT22;7379;51.506;11.876;2023-11-21T08:41:05;9.10;83.50
14585;DHT22;7379;51.506;11.876;2023-11-21T08:43:35;9.10;83.40
14585;DHT22;7379;51.506;11.876;2023-11-21T08:46:05;9.10;83.50
14585;DHT22;7379;51.506;11.876;2023-11-21T08:48:35;9.10;83.50
14585;DHT22;7379;51.506;11.876;2023-11-21T08:51:02;9.10;83.50
14585;DHT22;7379;51.506;11.876;2023-11-21T08:53:29;9.10;83.50
14585;DHT22;7379;51.506;11.876;2023-11-21T08:55:56;9.10;84.30
14585;DHT22;7379;51.506;11.876;2023-11-21T08:58:23;9.10;83.40
14585;DHT22;7379;51.506;11.876;2023-11-21T09:00:51;9.10;83.40
14585;DHT22;7379;51.506;11.876;2023-11-21T09:03:18;9.10;83.40
14585;DHT22;7379;51.506;11.876;2023-11-21T09:05:45;9.10;83.50
14585;DHT22;7379;51.506;11.876;2023-11-21T09:08:11;9.10;83.40
14585;DHT22;7379;51.506;11.876;2023-11-21T09:10:38;9.10;83.40
14585;DHT22;7379;51.506;11.876;2023-11-21T09:13:06;9.10;83.40
14585;DHT22;7379;51.506;11.876;2023-11-21T09:15:34;9.10;83.50
14585;DHT22;7379;51.506;11.876;2023-11-21T09:18:03;9.10;83.40
14585;DHT22;7379;51.506;11.876;2023-11-21T09:20:30;9.10;83.40
14585;DHT22;7379;51.506;11.876;2023-11-21T09:22:57;9.10;83.40
14585;DHT22;7379;51.506;11.876;2023-11-21T09:25:24;9.10;83.40
14585;DHT22;7379;51.506;11.876;2023-11-21T09:27:51;9.10;83.40
14585;DHT22;7379;51.506;11.876;2023-11-21T09:30:17;9.10;83.40
14585;DHT22;7379;51.506;11.876;2023-11-21T09:32:45;9.10;83.40
14585;DHT22;7379;51.506;11.876;2023-11-21T09:35:14;9.10;83.40
14585;DHT22;7379;51.506;11.876;2023-11-21T09:37:43;9.10;83.40
14585;DHT22;7379;51.506;11.876;2023-11-21T09:40:11;9.10;84.00
14585;DHT22;7379;51.506;11.876;2023-11-21T09:42:47;9.10;83.30
14585;DHT22;7379;51.506;11.876;2023-11-21T09:45:21;9.10;83.30
14585;DHT22;7379;51.506;11.876;2023-11-21T09:47:50;9.10;84.00
14585;DHT22;7379;51.506;11.876;2023-11-21T09:50:20;9.10;83.20
14585;DHT22;7379;51.506;11.876;2023-11-21T09:52:55;9.10;83.20
14585;DHT22;7379;51.506;11.876;2023-11-21T09:55:25;9.10;83.20
14585;DHT22;7379;51.506;11.876;2023-11-21T09:57:54;9.00;83.10
14585;DHT22;7379;51.506;11.876;2023-11-21T10:00:23;9.10;83.20
14585;DHT22;7379;51.506;11.876;2023-11-21T10:02:51;9.10;83.20
14585;DHT22;7379;51.506;11.876;2023-11-21T10:05:20;9.00;83.10
14585;DHT22;7379;51.506;11.876;2023-11-21T10:07:49;9.00;83.00
14585;DHT22;7379;51.506;11.876;2023-11-21T10:10:19;9.10;83.10
14585;DHT22;7379;51.506;11.876;2023-11-21T10:12:50;9.10;83.10
14585;DHT22;7379;51.506;11.876;2023-11-21T10:15:21;9.00;83.00
14585;DHT22;7379;51.506;11.876;2023-11-21T10:17:49;9.00;82.90
14585;DHT22;7379;51.506;11.876;2023-11-21T10:20:20;9.10;83.00
14585;DHT22;7379;51.506;11.876;2023-11-21T10:22:47;9.00;82.90
14585;DHT22;7379;51.506;11.876;2023-11-21T10:25:15;9.10;83.00
14585;DHT22;7379;51.506;11.876;2023-11-21T10:27:47;9.10;82.90
14585;DHT22;7379;51.506;11.876;2023-11-21T10:30:16;9.10;83.60
14585;DHT22;7379;51.506;11.876;2023-11-21T10:32:43;9.10;82.80
14585;DHT22;7379;51.506;11.876;2023-11-21T10:35:10;9.10;82.80
14585;DHT22;7379;51.506;11.876;2023-11-21T10:37:39;9.10;82.80
14585;DHT22;7379;51.506;11.876;2023-11-21T10:40:07;9.10;82.70
14585;DHT22;7379;51.506;11.876;2023-11-21T10:42:37;9.10;82.60
14585;DHT22;7379;51.506;11.876;2023-11-21T10:45:04;9.10;83.40
14585;DHT22;7379;51.506;11.876;2023-11-21T10:47:38;9.10;82.60
14585;DHT22;7379;51.506;11.876;2023-11-21T10:50:06;9.00;82.40
14585;DHT22;7379;51.506;11.876;2023-11-21T10:52:36;9.10;82.50
14585;DHT22;7379;51.506;11.876;2023-11-21T10:55:16;9.10;82.40
14585;DHT22;7379;51.506;11.876;2023-11-21T10:57:45;9.10;82.40
14585;DHT22;7379;51.506;11.876;2023-11-21T11:00:16;9.00;82.30
14585;DHT22;7379;51.506;11.876;2023-11-21T11:02:46;9.00;82.20
14585;DHT22;7379;51.506;11.876;2023-11-21T11:05:16;9.00;82.20
14585;DHT22;7379;51.506;11.876;2023-11-21T11:07:48;9.00;82.20
14585;DHT22;7379;51.506;11.876;2023-11-21T11:10:19;9.00;82.10
14585;DHT22;7379;51.506;11.876;2023-11-21T11:12:48;9.00;82.10
14585;DHT22;7379;51.506;11.876;2023-11-21T11:15:25;9.00;82.10
14585;DHT22;7379;51.506;11.876;2023-11-21T11:17:52;9.00;82.10
14585;DHT22;7379;51.506;11.876;2023-11-21T11:20:23;9.00;82.10
14585;DHT22;7379;51.506;11.876;2023-11-21T11:22:59;9.00;82.00
14585;DHT22;7379;51.506;11.876;2023-11-21T11:25:43;9.00;82.00
14585;DHT22;7379;51.506;11.876;2023-11-21T11:28:29;9.00;81.90
14585;DHT22;7379;51.506;11.876;2023-11-21T11:31:05;9.00;81.90
14585;DHT22;7379;51.506;11.876;2023-11-21T11:33:38;9.00;81.90
14585;DHT22;7379;51.506;11.876;2023-11-21T11:36:13;9.00;81.90
14585;DHT22;7379;51.506;11.876;2023-11-21T11:38:46;9.00;81.80
14585;DHT22;7379;51.506;11.876;2023-11-21T11:41:25;9.00;81.70
14585;DHT22;7379;51.506;11.876;2023-11-21T11:43:52;9.00;81.70
14585;DHT22;7379;51.506;11.876;2023-11-21T11:46:19;9.00;81.70
14585;DHT22;7379;51.506;11.876;2023-11-21T11:48:48;9.00;81.60
14585;DHT22;7379;51.506;11.876;2023-11-21T11:51:15;9.00;81.80
14585;DHT22;7379;51.506;11.876;2023-11-21T11:53:46;9.00;81.50
14585;DHT22;7379;51.506;11.876;2023-11-21T11:56:25;9.00;81.40
14585;DHT22;7379;51.506;11.876;2023-11-21T11:58:54;9.00;81.30
14585;DHT22;7379;51.506;11.876;2023-11-21T12:01:22;9.00;81.30
14585;DHT22;7379;51.506;11.876;2023-11-21T12:04:24;9.00;81.20
14585;DHT22;7379;51.506;11.876;2023-11-21T12:06:57;9.00;81.30
14585;DHT22;7379;51.506;11.876;2023-11-21T12:09:26;9.00;81.20
14585;DHT22;7379;51.506;11.876;2023-11-21T12:11:56;8.90;81.90
14585;DHT22;7379;51.506;11.876;2023-11-21T12:14:23;9.00;81.20
14585;DHT22;7379;51.506;11.876;2023-11-21T12:16:50;9.00;81.20
14585;DHT22;7379;51.506;11.876;2023-11-21T12:19:18;9.00;81.10
14585;DHT22;7379;51.506;11.876;2023-11-21T12:21:46;9.00;81.10
14585;DHT22;7379;51.506;11.876;2023-11-21T12:24:14;8.90;81.00
14585;DHT22;7379;51.506;11.876;2023-11-21T12:26:42;8.90;81.00
14585;DHT22;7379;51.506;11.876;2023-11-21T12:29:11;8.90;81.70
14585;DHT22;7379;51.506;11.876;2023-11-21T12:31:37;8.90;81.00
14585;DHT22;7379;51.506;11.876;2023-11-21T12:34:05;8.90;80.90
14585;DHT22;7379;51.506;11.876;2023-11-21T12:36:32;8.90;80.90
14585;DHT22;7379;51.506;11.876;2023-11-21T12:39:00;8.90;80.90
14585;DHT22;7379;51.506;11.876;2023-11-21T12:41:28;8.90;80.90
14585;DHT22;7379;51.506;11.876;2023-11-21T12:43:56;8.90;80.90
14585;DHT22;7379;51.506;11.876;2023-11-21T12:46:24;8.90;81.60
14585;DHT22;7379;51.506;11.876;2023-11-21T12:48:55;8.90;80.90
14585;DHT22;7379;51.506;11.876;2023-11-21T12:51:22;8.90;81.00
14585;DHT22;7379;51.506;11.876;2023-11-21T12:53:49;8.90;80.80
14585;DHT22;7379;51.506;11.876;2023-11-21T12:56:16;8.90;80.80
14585;DHT22;7379;51.506;11.876;2023-11-21T12:58:45;8.90;81.50
14585;DHT22;7379;51.506;11.876;2023-11-21T13:01:13;8.90;80.60
14585;DHT22;7379;51.506;11.876;2023-11-21T13:03:46;8.90;80.50
14585;DHT22;7379;51.506;11.876;2023-11-21T13:06:14;8.90;80.40
14585;DHT22;7379;51.506;11.876;2023-11-21T13:08:41;8.90;80.30
14585;DHT22;7379;51.506;11.876;2023-11-21T13:11:10;8.90;80.20
14585;DHT22;7379;51.506;11.876;2023-11-21T13:13:40;8.90;80.20
14585;DHT22;7379;51.506;11.876;2023-11-21T13:16:08;8.90;80.10
14585;DHT22;7379;51.506;11.876;2023-11-21T13:18:36;8.80;79.90
14585;DHT22;7379;51.506;11.876;2023-11-21T13:21:05;8.90;79.80
14585;DHT22;7379;51.506;11.876;2023-11-21T13:23:36;8.80;79.60
14585;DHT22;7379;51.506;11.876;2023-11-21T13:26:04;8.80;79.50
14585;DHT22;7379;51.506;11.876;2023-11-21T13:28:31;8.80;79.50
14585;DHT22;7379;51.506;11.876;2023-11-21T13:30:59;8.80;79.60
14585;DHT22;7379;51.506;11.876;2023-11-21T13:33:28;8.80;79.60
14585;DHT22;7379;51.506;11.876;2023-11-21T13:35:56;8.80;79.60
14585;DHT22;7379;51.506;11.876;2023-11-21T13:38:24;8.80;79.60
14585;DHT22;7379;51.506;11.876;2023-11-21T13:40:57;8.80;79.60
14585;DHT22;7379;51.506;11.876;2023-11-21T13:43:26;8.80;79.60
14585;DHT22;7379;51.506;11.876;2023-11-21T13:45:54;8.80;79.60
14585;DHT22;7379;51.506;11.876;2023-11-21T13:48:26;8.80;79.50
14585;DHT22;7379;51.506;11.876;2023-11-21T13:51:00;8.80;79.50
14585;DHT22;7379;51.506;11.876;2023-11-21T13:53:37;8.80;79.40
14585;DHT22;7379;51.506;11.876;2023-11-21T13:56:05;8.80;79.40
14585;DHT22;7379;51.506;11.876;2023-11-21T13:58:32;8.80;79.40
14585;DHT22;7379;51.506;11.876;2023-11-21T14:01:07;8.80;79.40
14585;DHT22;7379;51.506;11.876;2023-11-21T14:03:42;8.80;79.30
14585;DHT22;7379;51.506;11.876;2023-11-21T14:06:17;8.80;79.20
14585;DHT22;7379;51.506;11.876;2023-11-21T14:08:51;8.70;79.00
14585;DHT22;7379;51.506;11.876;2023-11-21T14:11:18;8.70;78.90
14585;DHT22;7379;51.506;11.876;2023-11-21T14:13:47;8.70;78.80
14585;DHT22;7379;51.506;11.876;2023-11-21T14:16:14;8.70;79.50
14585;DHT22;7379;51.506;11.876;2023-11-21T14:18:42;8.70;78.60
14585;DHT22;7379;51.506;11.876;2023-11-21T14:21:18;8.70;78.60
14585;DHT22;7379;51.506;11.876;2023-11-21T14:23:45;8.70;78.60
14585;DHT22;7379;51.506;11.876;2023-11-21T14:26:15;8.70;78.40
14585;DHT22;7379;51.506;11.876;2023-11-21T14:28:43;8.70;78.30
14585;DHT22;7379;51.506;11.876;2023-11-21T14:31:10;8.70;78.40
14585;DHT22;7379;51.506;11.876;2023-11-21T14:33:42;8.70;79.20
14585;DHT22;7379;51.506;11.876;2023-11-21T14:36:09;8.70;78.50
14585;DHT22;7379;51.506;11.876;2023-11-21T14:38:37;8.70;78.50
14585;DHT22;7379;51.506;11.876;2023-11-21T14:41:05;8.70;78.60
14585;DHT22;7379;51.506;11.876;2023-11-21T14:43:35;8.70;78.60
14585;DHT22;7379;51.506;11.876;2023-11-21T14:46:02;8.70;78.50
14585;DHT22;7379;51.506;11.876;2023-11-21T14:48:32;8.70;78.50
14585;DHT22;7379;51.506;11.876;2023-11-21T14:51:08;8.60;78.40
14585;DHT22;7379;51.506;11.876;2023-11-21T14:53:51;8.60;79.20
14585;DHT22;7379;51.506;11.876;2023-11-21T14:56:20;8.60;78.40
14585;DHT22;7379;51.506;11.876;2023-11-21T14:58:54;8.60;78.50
14585;DHT22;7379;51.506;11.876;2023-11-21T15:01:23;8.60;78.50
14585;DHT22;7379;51.506;11.876;2023-11-21T15:04:02;8.60;78.40
14585;DHT22;7379;51.506;11.876;2023-11-21T15:06:31;8.60;78.50
14585;DHT22;7379;51.506;11.876;2023-11-21T15:08:57;8.60;78.40
14585;DHT22;7379;51.506;11.876;2023-11-21T15:11:41;8.60;78.50
14585;DHT22;7379;51.506;11.876;2023-11-21T15:14:09;8.60;78.50
14585;DHT22;7379;51.506;11.876;2023-11-21T15:16:40;8.60;78.50
14585;DHT22;7379;51.506;11.876;2023-11-21T15:19:12;8.60;78.60
14585;DHT22;7379;51.506;11.876;2023-11-21T15:21:43;8.60;78.60
14585;DHT22;7379;51.506;11.876;2023-11-21T15:24:11;8.50;78.60
14585;DHT22;7379;51.506;11.876;2023-11-21T15:26:38;8.50;78.60
14585;DHT22;7379;51.506;11.876;2023-11-21T15:29:05;8.50;78.50
14585;DHT22;7379;51.506;11.876;2023-11-21T15:31:33;8.50;78.60
14585;DHT22;7379;51.506;11.876;2023-11-21T15:34:01;8.50;78.50
14585;DHT22;7379;51.506;11.876;2023-11-21T15:36:30;8.50;78.60
14585;DHT22;7379;51.506;11.876;2023-11-21T15:38:57;8.50;78.50
14585;DHT22;7379;51.506;11.876;2023-11-21T15:41:24;8.50;78.40
14585;DHT22;7379;51.506;11.876;2023-11-21T15:43:51;8.50;78.10
14585;DHT22;7379;51.506;11.876;2023-11-21T15:46:18;8.50;78.00
14585;DHT22;7379;51.506;11.876;2023-11-21T15:48:46;8.50;77.80
14585;DHT22;7379;51.506;11.876;2023-11-21T15:51:19;8.50;77.80
14585;DHT22;7379;51.506;11.876;2023-11-21T15:53:46;8.50;78.30